Time;durP1;ratioP1;P1;durP2;ratioP2;P2;SDS_P1;SDS_P2;PMS_P1;PMS_P2;Temp;Humidity;BMP_temperature;BMP_pressure;BME280_temperature;BME280_humidity;BME280_pressure;Samples;Min_cycle;Max_cycle;Signal;HPM_P1;HPM_P2
2023/03/08 00:01:11;;;;;;;22.45;8.13;;;;;;;;;;5027174;28;20033;-50
2023/03/08 00:03:36;;;;;;;26.20;8.13;;;;;;;;;;5028194;28;20025;-49
2023/03/08 00:06:06;;;;;;;23.50;9.48;;;;;;;;;;5024450;28;20048;-48
2023/03/08 00:08:32;;;;;;;23.25;9.60;;;;;;;;;;5011039;28;20617;-50
2023/03/08 00:10:57;;;;;;;17.67;7.95;;;;;;;;;;5007256;28;20037;-48
2023/03/08 00:13:22;;;;;;;20.38;8.23;;;;;;;;;;5008721;28;20188;-48
2023/03/08 00:15:47;;;;;;;14.48;6.35;;;;;;;;;;5036971;28;20025;-49
2023/03/08 00:18:13;;;;;;;19.45;7.90;;;;;;;;;;5046777;28;20033;-49
2023/03/08 00:20:38;;;;;;;20.00;7.50;;;;;;;;;;5046370;28;20194;-49
2023/03/08 00:23:03;;;;;;;21.42;7.85;;;;;;;;;;5047682;28;20041;-48
2023/03/08 00:25:29;;;;;;;21.38;8.38;;;;;;;;;;5046520;28;20033;-48
2023/03/08 00:27:54;;;;;;;18.55;8.30;;;;;;;;;;5018271;28;20411;-48
2023/03/08 00:30:19;;;;;;;22.50;8.55;;;;;;;;;;5006716;28;20594;-52
2023/03/08 00:32:45;;;;;;;17.98;7.60;;;;;;;;;;5007070;28;20038;-48
2023/03/08 00:35:10;;;;;;;17.73;7.25;;;;;;;;;;5007232;28;20717;-50
2023/03/08 00:37:35;;;;;;;15.18;7.07;;;;;;;;;;5023543;28;20041;-51
2023/03/08 00:40:01;;;;;;;14.13;6.05;;;;;;;;;;5027279;28;20033;-50
2023/03/08 00:42:26;;;;;;;14.40;5.70;;;;;;;;;;5026304;28;20099;-48
2023/03/08 00:44:51;;;;;;;16.67;6.00;;;;;;;;;;5026540;28;20725;-49
2023/03/08 00:47:17;;;;;;;13.15;4.95;;;;;;;;;;5026750;28;20534;-50
2023/03/08 00:49:43;;;;;;;11.93;4.75;;;;;;;;;;5026371;28;20127;-50
2023/03/08 00:52:09;;;;;;;9.00;4.82;;;;;;;;;;5026465;28;20021;-54
2023/03/08 00:54:34;;;;;;;8.15;4.30;;;;;;;;;;5025445;28;20036;-49
2023/03/08 00:56:59;;;;;;;11.15;4.60;;;;;;;;;;5025988;28;20041;-49
2023/03/08 00:59:25;;;;;;;13.52;5.38;;;;;;;;;;5024642;28;20685;-51
2023/03/08 01:01:50;;;;;;;13.90;5.55;;;;;;;;;;5025924;28;20033;-50
2023/03/08 01:04:16;;;;;;;15.40;6.30;;;;;;;;;;5026274;28;20025;-50
2023/03/08 01:06:42;;;;;;;14.55;6.03;;;;;;;;;;5024518;28;20609;-49
2023/03/08 01:09:08;;;;;;;14.50;4.97;;;;;;;;;;5022090;28;20087;-47
2023/03/08 01:11:35;;;;;;;11.68;4.38;;;;;;;;;;5025804;28;20082;-48
2023/03/08 01:14:01;;;;;;;10.60;5.18;;;;;;;;;;5025402;28;20037;-53
2023/03/08 01:16:29;;;;;;;11.10;4.80;;;;;;;;;;5023431;28;20065;-48
2023/03/08 01:18:56;;;;;;;14.70;5.63;;;;;;;;;;5030289;28;20031;-51
2023/03/08 01:21:22;;;;;;;8.10;4.47;;;;;;;;;;5046188;28;20465;-50
2023/03/08 01:23:48;;;;;;;12.20;4.97;;;;;;;;;;5034742;28;20235;-47
2023/03/08 01:26:19;;;;;;;9.60;4.20;;;;;;;;;;5025774;28;20562;-47
2023/03/08 01:28:45;;;;;;;13.15;5.57;;;;;;;;;;5026046;28;20065;-48
2023/03/08 01:31:16;;;;;;;13.57;5.07;;;;;;;;;;5025992;28;20072;-49
2023/03/08 01:33:43;;;;;;;13.32;4.82;;;;;;;;;;5025060;28;20041;-48
2023/03/08 01:36:11;;;;;;;9.68;4.90;;;;;;;;;;5026230;28;20044;-47
2023/03/08 01:38:37;;;;;;;11.95;4.85;;;;;;;;;;5025275;28;20042;-49
2023/03/08 01:41:04;;;;;;;14.07;4.60;;;;;;;;;;5025747;28;20036;-51
2023/03/08 01:43:32;;;;;;;14.68;5.05;;;;;;;;;;5026420;28;20040;-48
2023/03/08 01:46:30;;;;;;;13.60;5.85;;;;;;;;;;5025919;28;20080;-48
2023/03/08 01:49:29;;;;;;;12.77;4.75;;;;;;;;;;5010000;28;20042;-48
2023/03/08 01:52:03;;;;;;;12.98;4.28;;;;;;;;;;4982912;28;20798;-49
2023/03/08 01:54:32;;;;;;;13.13;4.82;;;;;;;;;;5023809;28;20053;-48
2023/03/08 01:57:07;;;;;;;14.82;5.75;;;;;;;;;;5025583;28;20045;-48
2023/03/08 01:59:33;;;;;;;16.15;6.10;;;;;;;;;;5025476;28;20041;-53
2023/03/08 02:01:59;;;;;;;19.85;5.65;;;;;;;;;;5025393;28;20060;-49
2023/03/08 02:04:25;;;;;;;14.43;6.50;;;;;;;;;;5026289;28;20026;-49
2023/03/08 02:06:51;;;;;;;18.38;5.72;;;;;;;;;;5029318;28;20651;-49
2023/03/08 02:09:17;;;;;;;14.27;5.70;;;;;;;;;;5029567;28;20036;-51
2023/03/08 02:11:42;;;;;;;14.90;5.28;;;;;;;;;;5029609;28;20033;-49
2023/03/08 02:14:07;;;;;;;15.27;5.57;;;;;;;;;;5028823;28;20140;-49
2023/03/08 02:16:33;;;;;;;18.65;7.03;;;;;;;;;;5029584;28;20585;-50
2023/03/08 02:19:01;;;;;;;14.35;5.90;;;;;;;;;;5032453;28;20034;-53
2023/03/08 02:21:28;;;;;;;13.05;4.93;;;;;;;;;;5027322;28;20245;-48
2023/03/08 02:23:55;;;;;;;17.35;6.68;;;;;;;;;;5026134;28;20042;-50
2023/03/08 02:26:21;;;;;;;16.88;6.53;;;;;;;;;;5027838;28;20049;-47
2023/03/08 02:28:47;;;;;;;25.27;8.63;;;;;;;;;;5029572;28;20037;-50
2023/03/08 02:31:13;;;;;;;19.33;7.43;;;;;;;;;;5029521;28;20449;-49
2023/03/08 02:33:38;;;;;;;28.60;9.23;;;;;;;;;;5024677;28;20029;-48
2023/03/08 02:36:06;;;;;;;24.13;9.20;;;;;;;;;;5028093;28;20144;-50
2023/03/08 02:38:32;;;;;;;18.73;9.07;;;;;;;;;;5029338;28;20038;-49
2023/03/08 02:40:58;;;;;;;16.30;7.25;;;;;;;;;;5012954;28;20123;-49
2023/03/08 02:43:23;;;;;;;24.20;9.60;;;;;;;;;;5017496;28;20423;-50
2023/03/08 02:45:48;;;;;;;10.00;4.25;;;;;;;;;;5012343;28;20484;-48
2023/03/08 02:48:14;;;;;;;14.98;7.45;;;;;;;;;;5024350;28;20121;-48
2023/03/08 02:50:39;;;;;;;26.52;9.32;;;;;;;;;;5028227;28;20042;-47
2023/03/08 02:53:05;;;;;;;24.33;8.77;;;;;;;;;;5028204;28;20113;-49
2023/03/08 02:55:30;;;;;;;20.10;8.40;;;;;;;;;;5029029;28;20061;-49
2023/03/08 02:57:56;;;;;;;23.08;8.25;;;;;;;;;;5010913;28;20026;-48
2023/03/08 03:00:21;;;;;;;19.17;8.50;;;;;;;;;;5008483;28;20074;-48
2023/03/08 03:02:46;;;;;;;22.20;7.90;;;;;;;;;;5013251;28;20050;-47
2023/03/08 03:05:12;;;;;;;26.13;9.07;;;;;;;;;;5025095;28;20037;-48
2023/03/08 03:07:39;;;;;;;47.50;5.57;;;;;;;;;;5025512;28;20045;-49
2023/03/08 03:10:06;;;;;;;16.90;7.38;;;;;;;;;;5028251;28;20384;-50
2023/03/08 03:12:32;;;;;;;18.23;8.18;;;;;;;;;;5025161;28;20021;-48
2023/03/08 03:14:57;;;;;;;21.55;7.85;;;;;;;;;;5021348;28;20061;-47
2023/03/08 03:17:22;;;;;;;14.40;6.65;;;;;;;;;;5026707;28;20055;-49
2023/03/08 03:19:48;;;;;;;9.52;5.07;;;;;;;;;;5036404;28;20550;-48
2023/03/08 03:22:13;;;;;;;11.18;4.75;;;;;;;;;;5028532;28;20036;-49
2023/03/08 03:24:38;;;;;;;18.70;7.57;;;;;;;;;;5028691;28;20624;-49
2023/03/08 03:27:04;;;;;;;18.58;6.38;;;;;;;;;;5027763;28;20033;-48
2023/03/08 03:29:29;;;;;;;23.83;8.13;;;;;;;;;;5028328;28;20465;-48
2023/03/08 03:31:55;;;;;;;19.52;7.55;;;;;;;;;;5027811;28;20116;-49
2023/03/08 03:34:20;;;;;;;26.23;9.15;;;;;;;;;;5026421;28;20030;-49
2023/03/08 03:36:46;;;;;;;29.38;8.43;;;;;;;;;;5027386;28;20104;-49
2023/03/08 03:39:11;;;;;;;21.80;8.02;;;;;;;;;;5027254;28;20038;-49
2023/03/08 03:41:36;;;;;;;17.60;7.88;;;;;;;;;;5027800;28;20048;-50
2023/03/08 03:44:02;;;;;;;18.95;7.85;;;;;;;;;;5027951;28;20435;-49
2023/03/08 03:46:27;;;;;;;13.50;5.35;;;;;;;;;;5023269;28;20180;-49
2023/03/08 03:48:52;;;;;;;18.70;7.25;;;;;;;;;;5009751;28;20045;-53
2023/03/08 03:51:20;;;;;;;22.67;7.55;;;;;;;;;;5006585;28;20038;-49
2023/03/08 03:53:46;;;;;;;21.25;8.63;;;;;;;;;;5019396;28;20521;-50
2023/03/08 03:56:20;;;;;;;17.42;7.75;;;;;;;;;;5022003;28;20458;-48
2023/03/08 03:58:45;;;;;;;18.60;6.50;;;;;;;;;;5006842;28;20058;-48
2023/03/08 04:01:17;;;;;;;11.25;4.43;;;;;;;;;;5006832;28;20033;-47
2023/03/08 04:03:43;;;;;;;14.85;5.93;;;;;;;;;;5008002;28;20052;-50
2023/03/08 04:06:12;;;;;;;8.95;3.85;;;;;;;;;;5007143;28;20618;-51
2023/03/08 04:08:43;;;;;;;17.15;6.63;;;;;;;;;;5007491;28;20088;-50
2023/03/08 04:11:10;;;;;;;18.73;7.30;;;;;;;;;;5008015;28;20037;-49
2023/03/08 04:13:36;;;;;;;29.50;8.82;;;;;;;;;;5017028;28;20041;-52
2023/03/08 04:16:16;;;;;;;24.73;8.43;;;;;;;;;;5026407;28;20025;-49
2023/03/08 04:18:42;;;;;;;13.68;6.18;;;;;;;;;;5029120;28;20045;-48
2023/03/08 04:21:07;;;;;;;12.00;5.55;;;;;;;;;;5045979;28;20051;-48
2023/03/08 04:23:33;;;;;;;13.45;6.95;;;;;;;;;;5046832;28;20570;-51
2023/03/08 04:25:59;;;;;;;15.13;6.25;;;;;;;;;;5035589;28;20532;-48
2023/03/08 04:28:25;;;;;;;11.98;5.88;;;;;;;;;;5026186;28;20075;-50
2023/03/08 04:30:50;;;;;;;12.15;5.80;;;;;;;;;;5045890;28;20056;-51
2023/03/08 04:33:15;;;;;;;10.55;5.95;;;;;;;;;;5047025;28;20086;-51
2023/03/08 04:35:41;;;;;;;6.38;3.35;;;;;;;;;;5020142;28;20041;-50
2023/03/08 04:38:06;;;;;;;14.45;6.15;;;;;;;;;;5025791;28;20061;-48
2023/03/08 04:40:31;;;;;;;16.15;4.80;;;;;;;;;;5025002;28;20041;-50
2023/03/08 04:42:57;;;;;;;11.88;4.93;;;;;;;;;;5017997;28;20034;-52
2023/03/08 04:45:22;;;;;;;11.40;4.70;;;;;;;;;;5006521;28;20722;-49
2023/03/08 04:47:48;;;;;;;11.25;5.68;;;;;;;;;;5006355;28;20030;-53
2023/03/08 04:50:14;;;;;;;4.47;2.70;;;;;;;;;;5006733;28;20396;-48
2023/03/08 04:52:39;;;;;;;8.32;4.75;;;;;;;;;;5009253;28;20052;-48
2023/03/08 04:55:05;;;;;;;14.18;5.50;;;;;;;;;;5026399;28;20025;-47
2023/03/08 04:57:30;;;;;;;13.75;4.78;;;;;;;;;;5015927;28;20376;-47
2023/03/08 04:59:56;;;;;;;8.60;5.05;;;;;;;;;;5018711;28;20037;-48
2023/03/08 05:02:22;;;;;;;14.18;4.43;;;;;;;;;;5023490;28;20033;-48
2023/03/08 05:04:48;;;;;;;8.32;4.72;;;;;;;;;;5017120;28;20049;-53
2023/03/08 05:07:13;;;;;;;6.72;3.22;;;;;;;;;;5020924;28;20044;-48
2023/03/08 05:09:38;;;;;;;9.57;4.72;;;;;;;;;;5025635;28;20040;-51
2023/03/08 05:12:04;;;;;;;7.28;4.32;;;;;;;;;;5025408;28;20038;-48
2023/03/08 05:14:29;;;;;;;9.18;4.88;;;;;;;;;;5007885;28;20038;-52
2023/03/08 05:16:55;;;;;;;5.35;3.33;;;;;;;;;;5006409;28;20050;-48
2023/03/08 05:19:21;;;;;;;7.60;4.00;;;;;;;;;;5020908;28;20028;-52
2023/03/08 05:21:46;;;;;;;13.32;4.80;;;;;;;;;;5045904;28;20033;-48
2023/03/08 05:24:11;;;;;;;10.23;4.25;;;;;;;;;;5045892;28;20162;-50
2023/03/08 05:26:38;;;;;;;9.70;4.55;;;;;;;;;;5045605;28;20605;-49
2023/03/08 05:29:05;;;;;;;9.73;4.78;;;;;;;;;;5046072;28;20028;-49
2023/03/08 05:31:31;;;;;;;9.18;3.85;;;;;;;;;;5045677;28;20040;-49
2023/03/08 05:33:56;;;;;;;8.27;4.30;;;;;;;;;;5046009;28;20033;-48
2023/03/08 05:36:22;;;;;;;4.43;2.88;;;;;;;;;;5045744;28;20481;-48
2023/03/08 05:38:51;;;;;;;7.90;3.38;;;;;;;;;;5045299;28;20056;-47
2023/03/08 05:41:17;;;;;;;8.07;3.17;;;;;;;;;;5048237;28;21041;-48
2023/03/08 05:43:42;;;;;;;10.60;3.92;;;;;;;;;;5049966;28;20127;-50
2023/03/08 05:46:14;;;;;;;3.38;2.63;;;;;;;;;;5049453;28;20032;-49
2023/03/08 05:48:40;;;;;;;7.72;4.40;;;;;;;;;;5050465;28;20021;-48
2023/03/08 05:51:07;;;;;;;9.68;3.67;;;;;;;;;;5049499;28;20044;-47
2023/03/08 05:53:32;;;;;;;5.97;3.17;;;;;;;;;;5028106;28;20578;-49
2023/03/08 05:56:08;;;;;;;10.45;4.88;;;;;;;;;;5024704;28;20121;-49
2023/03/08 05:58:33;;;;;;;5.53;3.30;;;;;;;;;;5028272;28;20088;-47
2023/03/08 06:00:59;;;;;;;7.18;3.55;;;;;;;;;;5029954;28;20053;-49
2023/03/08 06:03:24;;;;;;;10.82;4.70;;;;;;;;;;5029782;28;20037;-51
2023/03/08 06:05:49;;;;;;;10.77;3.78;;;;;;;;;;5028821;28;20129;-48
2023/03/08 06:08:15;;;;;;;3.88;2.75;;;;;;;;;;5028554;28;20526;-47
2023/03/08 06:10:40;;;;;;;6.57;3.45;;;;;;;;;;5029521;28;20033;-50
2023/03/08 06:13:05;;;;;;;9.48;2.20;;;;;;;;;;5026093;28;20090;-49
2023/03/08 06:15:30;;;;;;;6.47;3.35;;;;;;;;;;5008521;28;20025;-51
2023/03/08 06:17:56;;;;;;;3.72;2.22;;;;;;;;;;5009372;28;20042;-52
2023/03/08 06:20:21;;;;;;;6.07;3.33;;;;;;;;;;5040353;28;20049;-49
2023/03/08 06:22:46;;;;;;;2.10;1.83;;;;;;;;;;5048913;28;20045;-48
2023/03/08 06:25:12;;;;;;;4.80;2.90;;;;;;;;;;5049280;28;20452;-50
2023/03/08 06:27:37;;;;;;;4.70;2.60;;;;;;;;;;5025402;28;20116;-50
2023/03/08 06:30:02;;;;;;;4.75;2.92;;;;;;;;;;5028650;28;20388;-50
2023/03/08 06:32:28;;;;;;;7.68;2.90;;;;;;;;;;5028295;28;20048;-47
2023/03/08 06:34:53;;;;;;;2.45;2.00;;;;;;;;;;5029069;28;20041;-49
2023/03/08 06:37:18;;;;;;;6.30;3.58;;;;;;;;;;5028874;28;20121;-48
2023/03/08 06:39:44;;;;;;;2.83;1.52;;;;;;;;;;5032106;28;20048;-50
2023/03/08 06:42:09;;;;;;;3.15;1.17;;;;;;;;;;5023114;28;20045;-51
2023/03/08 06:44:34;;;;;;;2.25;1.88;;;;;;;;;;5019548;28;20064;-48
2023/03/08 06:46:59;;;;;;;1.20;0.98;;;;;;;;;;5009510;28;20100;-52
2023/03/08 06:49:25;;;;;;;5.50;2.08;;;;;;;;;;5014394;28;20032;-50
2023/03/08 06:51:50;;;;;;;0.60;0.60;;;;;;;;;;5015579;28;20029;-48
2023/03/08 06:54:16;;;;;;;1.10;0.88;;;;;;;;;;5027826;28;20116;-50
2023/03/08 06:56:46;;;;;;;2.50;2.10;;;;;;;;;;5028403;28;20033;-51
2023/03/08 06:59:12;;;;;;;0.98;0.65;;;;;;;;;;5027040;28;20042;-48
2023/03/08 07:01:37;;;;;;;1.55;1.20;;;;;;;;;;5020344;28;20138;-52
2023/03/08 07:04:03;;;;;;;1.70;1.60;;;;;;;;;;5021330;28;20505;-48
2023/03/08 07:06:28;;;;;;;1.90;1.75;;;;;;;;;;5022251;28;20018;-48
2023/03/08 07:08:54;;;;;;;2.28;1.67;;;;;;;;;;5008139;28;20030;-48
2023/03/08 07:11:19;;;;;;;2.72;2.15;;;;;;;;;;5025147;28;20079;-52
2023/03/08 07:13:44;;;;;;;4.65;2.13;;;;;;;;;;5027882;28;20037;-48
2023/03/08 07:16:12;;;;;;;1.35;1.25;;;;;;;;;;5042547;28;20029;-48
2023/03/08 07:18:38;;;;;;;3.42;1.92;;;;;;;;;;5034789;28;20033;-52
2023/03/08 07:21:04;;;;;;;2.67;2.42;;;;;;;;;;5021198;28;20033;-49
2023/03/08 07:23:29;;;;;;;6.15;2.55;;;;;;;;;;5028498;28;20044;-50
2023/03/08 07:25:54;;;;;;;1.95;1.85;;;;;;;;;;5046397;28;20464;-50
2023/03/08 07:28:20;;;;;;;2.90;1.42;;;;;;;;;;5023617;28;20045;-51
2023/03/08 07:30:47;;;;;;;2.83;1.95;;;;;;;;;;5020403;28;20021;-49
2023/03/08 07:33:12;;;;;;;3.17;2.17;;;;;;;;;;5025756;28;20048;-51
2023/03/08 07:35:38;;;;;;;4.65;2.47;;;;;;;;;;5026087;28;20037;-48
2023/03/08 07:38:03;;;;;;;1.95;1.30;;;;;;;;;;5024159;28;20722;-47
2023/03/08 07:40:28;;;;;;;1.30;0.95;;;;;;;;;;5026715;28;20037;-50
2023/03/08 07:42:54;;;;;;;1.95;1.58;;;;;;;;;;5028213;28;20021;-51
2023/03/08 07:45:19;;;;;;;0.88;0.88;;;;;;;;;;5026369;28;20296;-47
2023/03/08 07:47:45;;;;;;;2.28;1.95;;;;;;;;;;5046464;28;20037;-52
2023/03/08 07:50:12;;;;;;;2.67;1.05;;;;;;;;;;5012880;28;20217;-53
2023/03/08 07:52:37;;;;;;;1.23;1.15;;;;;;;;;;5014459;28;20519;-48
2023/03/08 07:55:03;;;;;;;2.45;1.45;;;;;;;;;;5022483;28;20079;-52
2023/03/08 07:57:28;;;;;;;1.63;1.20;;;;;;;;;;5003208;28;20650;-48
2023/03/08 07:59:53;;;;;;;2.83;1.25;;;;;;;;;;5037723;28;20033;-49
2023/03/08 08:02:18;;;;;;;4.68;1.85;;;;;;;;;;5035683;28;20104;-50
2023/03/08 08:04:44;;;;;;;3.58;2.42;;;;;;;;;;5041246;28;20450;-48
2023/03/08 08:07:14;;;;;;;2.65;1.83;;;;;;;;;;5026815;28;20035;-49
2023/03/08 08:09:40;;;;;;;0.77;0.77;;;;;;;;;;5028546;28;20426;-50
2023/03/08 08:12:06;;;;;;;7.40;3.28;;;;;;;;;;5026653;28;20044;-49
2023/03/08 08:14:31;;;;;;;3.05;2.17;;;;;;;;;;5026497;28;20033;-51
2023/03/08 08:16:57;;;;;;;9.02;2.60;;;;;;;;;;5027415;28;20045;-49
2023/03/08 08:19:23;;;;;;;5.00;2.63;;;;;;;;;;5018021;28;20046;-49
2023/03/08 08:21:48;;;;;;;2.10;1.13;;;;;;;;;;5008316;28;20030;-50
2023/03/08 08:24:14;;;;;;;3.58;1.13;;;;;;;;;;5005983;28;20037;-49
2023/03/08 08:26:39;;;;;;;2.17;1.98;;;;;;;;;;5000914;28;20040;-51
2023/03/08 08:29:04;;;;;;;4.38;1.38;;;;;;;;;;5006762;28;20116;-47
2023/03/08 08:31:30;;;;;;;1.20;1.20;;;;;;;;;;5006857;28;20030;-52
2023/03/08 08:33:56;;;;;;;2.65;1.92;;;;;;;;;;5001500;28;20054;-53
2023/03/08 08:36:22;;;;;;;1.63;1.33;;;;;;;;;;5023905;28;20104;-52
2023/03/08 08:38:48;;;;;;;1.80;1.30;;;;;;;;;;5026537;28;20064;-51
2023/03/08 08:41:16;;;;;;;2.25;1.95;;;;;;;;;;5023102;28;20058;-50
2023/03/08 08:43:42;;;;;;;1.40;1.27;;;;;;;;;;5006627;28;20080;-53
2023/03/08 08:46:09;;;;;;;3.28;1.63;;;;;;;;;;5007349;28;20407;-51
2023/03/08 08:48:36;;;;;;;2.75;1.13;;;;;;;;;;5007993;28;20036;-52
2023/03/08 08:51:03;;;;;;;3.33;2.03;;;;;;;;;;5007159;28;20034;-50
2023/03/08 08:53:28;;;;;;;5.90;2.70;;;;;;;;;;5016692;28;20136;-52
2023/03/08 08:55:53;;;;;;;1.33;1.10;;;;;;;;;;5026832;28;20160;-51
2023/03/08 08:58:18;;;;;;;3.03;1.90;;;;;;;;;;5026827;28;20398;-50
2023/03/08 09:00:46;;;;;;;4.28;2.20;;;;;;;;;;5005504;28;20160;-52
2023/03/08 09:03:12;;;;;;;2.38;2.10;;;;;;;;;;5023973;28;20033;-49
2023/03/08 09:05:39;;;;;;;4.57;1.50;;;;;;;;;;5015451;28;20044;-50
2023/03/08 09:08:05;;;;;;;8.18;1.67;;;;;;;;;;5023384;28;20042;-51
2023/03/08 09:10:34;;;;;;;3.78;2.65;;;;;;;;;;5034530;28;20247;-52
2023/03/08 09:12:59;;;;;;;5.05;2.80;;;;;;;;;;5023007;28;20022;-51
2023/03/08 09:15:25;;;;;;;7.05;2.85;;;;;;;;;;5025680;28;20072;-57
2023/03/08 09:17:50;;;;;;;3.08;2.22;;;;;;;;;;5037938;28;20052;-54
2023/03/08 09:20:17;;;;;;;9.63;4.55;;;;;;;;;;5030001;28;20033;-51
2023/03/08 09:22:42;;;;;;;11.65;3.70;;;;;;;;;;5043788;28;20048;-55
2023/03/08 09:25:09;;;;;;;5.40;3.47;;;;;;;;;;5045074;28;20024;-54
2023/03/08 09:27:37;;;;;;;7.97;3.47;;;;;;;;;;5046017;28;20124;-55
2023/03/08 09:30:03;;;;;;;4.25;2.85;;;;;;;;;;5023548;28;20022;-53
2023/03/08 09:32:31;;;;;;;7.60;3.88;;;;;;;;;;5025670;28;20817;-55
2023/03/08 09:34:57;;;;;;;7.15;3.88;;;;;;;;;;5026009;28;20033;-55
2023/03/08 09:37:22;;;;;;;6.13;3.03;;;;;;;;;;5026071;28;20612;-55
2023/03/08 09:39:50;;;;;;;5.93;3.63;;;;;;;;;;5022956;28;20037;-54
2023/03/08 09:42:22;;;;;;;6.38;3.42;;;;;;;;;;5025490;28;20542;-56
2023/03/08 09:45:13;;;;;;;12.13;4.95;;;;;;;;;;5025635;28;20068;-55
2023/03/08 09:47:40;;;;;;;6.40;3.22;;;;;;;;;;5023596;28;20116;-55
2023/03/08 09:50:12;;;;;;;6.32;3.85;;;;;;;;;;5023054;28;20065;-55
2023/03/08 09:52:39;;;;;;;3.10;1.80;;;;;;;;;;5017214;28;20041;-56
2023/03/08 09:55:15;;;;;;;5.60;3.50;;;;;;;;;;5021479;28;20031;-56
2023/03/08 09:57:47;;;;;;;4.13;2.20;;;;;;;;;;5023871;28;20132;-54
2023/03/08 10:00:21;;;;;;;7.75;3.70;;;;;;;;;;5025751;28;20427;-54
2023/03/08 10:03:00;;;;;;;7.82;2.60;;;;;;;;;;5025548;28;20037;-52
2023/03/08 10:05:56;;;;;;;10.25;4.47;;;;;;;;;;5024563;28;20041;-56
2023/03/08 10:08:25;;;;;;;7.15;3.83;;;;;;;;;;5009278;28;20037;-55
2023/03/08 10:11:00;;;;;;;7.32;2.97;;;;;;;;;;5023509;28;20419;-55
2023/03/08 10:13:30;;;;;;;5.55;2.95;;;;;;;;;;5024026;28;20053;-52
2023/03/08 10:16:11;;;;;;;5.82;3.35;;;;;;;;;;5018457;28;20068;-54
2023/03/08 10:18:39;;;;;;;7.95;4.28;;;;;;;;;;5014537;28;20080;-55
2023/03/08 10:21:05;;;;;;;8.60;4.10;;;;;;;;;;5022790;28;20555;-56
2023/03/08 10:23:32;;;;;;;8.20;3.75;;;;;;;;;;5006415;28;20427;-54
2023/03/08 10:25:59;;;;;;;8.75;4.28;;;;;;;;;;5006547;28;20037;-54
2023/03/08 10:28:26;;;;;;;7.25;3.50;;;;;;;;;;5009482;28;20025;-54
2023/03/08 10:30:57;;;;;;;6.28;3.75;;;;;;;;;;5010201;28;20465;-55
2023/03/08 10:33:24;;;;;;;11.05;3.35;;;;;;;;;;5009062;28;20396;-53
2023/03/08 10:36:11;;;;;;;6.10;3.10;;;;;;;;;;5018961;28;20044;-56
2023/03/08 10:38:37;;;;;;;5.57;2.95;;;;;;;;;;5025030;28;20140;-54
2023/03/08 10:41:13;;;;;;;6.22;2.90;;;;;;;;;;5029231;28;20073;-55
2023/03/08 10:43:44;;;;;;;4.70;2.83;;;;;;;;;;5024350;28;20038;-54
2023/03/08 10:46:16;;;;;;;6.05;3.63;;;;;;;;;;5028880;28;20060;-55
2023/03/08 10:48:42;;;;;;;9.68;3.90;;;;;;;;;;5029573;28;20029;-55
2023/03/08 10:51:22;;;;;;;5.85;2.92;;;;;;;;;;5027287;28;20037;-54
2023/03/08 10:53:55;;;;;;;5.40;2.58;;;;;;;;;;5028460;28;20040;-55
2023/03/08 10:56:25;;;;;;;8.43;3.38;;;;;;;;;;5024959;28;20036;-55
2023/03/08 10:58:55;;;;;;;6.75;2.90;;;;;;;;;;5022321;28;20128;-53
2023/03/08 11:01:27;;;;;;;6.55;3.10;;;;;;;;;;5028449;28;20030;-55
2023/03/08 11:04:03;;;;;;;4.78;2.72;;;;;;;;;;5025404;28;20756;-54
2023/03/08 11:06:29;;;;;;;7.65;3.58;;;;;;;;;;5028711;28;20045;-55
2023/03/08 11:08:58;;;;;;;4.53;2.97;;;;;;;;;;5047324;28;20140;-55
2023/03/08 11:11:23;;;;;;;6.60;3.10;;;;;;;;;;5048293;28;20470;-55
2023/03/08 11:13:50;;;;;;;5.05;2.90;;;;;;;;;;5019467;28;20034;-54
2023/03/08 11:16:23;;;;;;;5.88;2.92;;;;;;;;;;5026534;28;20026;-53
2023/03/08 11:19:06;;;;;;;6.40;3.00;;;;;;;;;;5031908;28;20055;-54
2023/03/08 11:21:45;;;;;;;5.93;2.75;;;;;;;;;;5035689;28;20103;-55
2023/03/08 11:24:39;;;;;;;7.60;3.80;;;;;;;;;;5027457;28;20510;-55
2023/03/08 11:27:14;;;;;;;3.53;1.80;;;;;;;;;;5018528;28;20087;-56
2023/03/08 11:29:53;;;;;;;2.97;1.70;;;;;;;;;;5024518;28;20033;-54
2023/03/08 11:33:12;;;;;;;7.93;3.20;;;;;;;;;;5006974;28;20129;-55
2023/03/08 11:36:05;;;;;;;5.07;2.67;;;;;;;;;;4966617;28;20043;-55
2023/03/08 11:38:32;;;;;;;4.28;2.10;;;;;;;;;;4972362;28;20520;-56
2023/03/08 11:41:25;;;;;;;4.05;2.30;;;;;;;;;;5002638;28;20040;-55
2023/03/08 11:44:08;;;;;;;6.22;3.13;;;;;;;;;;5015606;28;20176;-54
2023/03/08 11:46:52;;;;;;;4.68;2.38;;;;;;;;;;5026303;28;20081;-55
2023/03/08 11:50:13;;;;;;;5.43;2.63;;;;;;;;;;5027141;28;20017;-55
2023/03/08 11:52:52;;;;;;;5.00;2.72;;;;;;;;;;4996828;28;20430;-55
2023/03/08 11:55:23;;;;;;;5.72;2.90;;;;;;;;;;5026366;28;20044;-55
2023/03/08 11:58:02;;;;;;;6.63;3.00;;;;;;;;;;5028460;28;20117;-55
2023/03/08 12:00:36;;;;;;;8.10;4.05;;;;;;;;;;5026788;28;20064;-56
2023/03/08 12:03:19;;;;;;;7.63;3.17;;;;;;;;;;5027698;28;20038;-55
2023/03/08 12:05:57;;;;;;;9.50;3.78;;;;;;;;;;5020766;28;20041;-55
2023/03/08 12:08:30;;;;;;;6.47;3.10;;;;;;;;;;5024083;28;20073;-57
2023/03/08 12:11:01;;;;;;;8.23;3.92;;;;;;;;;;5026708;28;20103;-56
2023/03/08 12:13:45;;;;;;;8.32;4.80;;;;;;;;;;5027609;28;20037;-55
2023/03/08 12:16:18;;;;;;;14.90;6.43;;;;;;;;;;5025274;28;20510;-56
2023/03/08 12:19:10;;;;;;;14.75;5.70;;;;;;;;;;5030159;28;20037;-55
2023/03/08 12:21:39;;;;;;;8.32;4.32;;;;;;;;;;5046191;28;20033;-54
2023/03/08 12:24:13;;;;;;;11.52;4.75;;;;;;;;;;5041954;28;20158;-53
2023/03/08 12:26:47;;;;;;;9.10;3.90;;;;;;;;;;5019032;28;20087;-55
2023/03/08 12:29:21;;;;;;;11.88;5.50;;;;;;;;;;5005922;28;20042;-54
2023/03/08 12:31:48;;;;;;;11.13;5.60;;;;;;;;;;5027318;28;20041;-55
2023/03/08 12:34:36;;;;;;;17.73;6.68;;;;;;;;;;5045025;28;20032;-55
2023/03/08 12:37:01;;;;;;;10.50;5.82;;;;;;;;;;5046937;28;20060;-55
2023/03/08 12:39:32;;;;;;;12.43;6.60;;;;;;;;;;5046390;28;20083;-53
2023/03/08 12:42:01;;;;;;;6.93;3.65;;;;;;;;;;5046825;28;20033;-55
2023/03/08 12:44:29;;;;;;;11.98;4.90;;;;;;;;;;5026037;28;20077;-54
2023/03/08 12:47:01;;;;;;;11.10;5.57;;;;;;;;;;5026708;28;20037;-55
2023/03/08 12:49:36;;;;;;;7.07;3.67;;;;;;;;;;5025388;28;20051;-55
2023/03/08 12:52:05;;;;;;;7.28;3.53;;;;;;;;;;5023386;28;20080;-56
2023/03/08 12:54:33;;;;;;;8.60;3.45;;;;;;;;;;5025657;28;20096;-52
2023/03/08 12:57:02;;;;;;;11.60;5.05;;;;;;;;;;5031096;28;20066;-53
2023/03/08 12:59:35;;;;;;;9.43;4.95;;;;;;;;;;5045123;28;20128;-55
2023/03/08 13:02:20;;;;;;;9.33;4.47;;;;;;;;;;5040160;28;20455;-55
2023/03/08 13:04:45;;;;;;;11.07;4.45;;;;;;;;;;5021041;28;20037;-54
2023/03/08 13:07:29;;;;;;;15.70;7.35;;;;;;;;;;5025497;28;20033;-54
2023/03/08 13:10:17;;;;;;;9.82;5.10;;;;;;;;;;5021603;28;20021;-55
2023/03/08 13:13:23;;;;;;;9.63;4.68;;;;;;;;;;5018950;28;20925;-55
2023/03/08 13:15:49;;;;;;;9.27;5.40;;;;;;;;;;4991162;28;20161;-54
2023/03/08 13:18:17;;;;;;;10.50;4.82;;;;;;;;;;5024017;28;20140;-55
2023/03/08 13:20:58;;;;;;;13.18;5.03;;;;;;;;;;5042781;28;20048;-55
2023/03/08 13:23:31;;;;;;;5.97;3.22;;;;;;;;;;5044757;28;20032;-55
2023/03/08 13:25:56;;;;;;;11.10;5.35;;;;;;;;;;5014963;28;20034;-56
2023/03/08 13:28:25;;;;;;;11.73;5.32;;;;;;;;;;5024022;28;20029;-55
2023/03/08 13:30:53;;;;;;;9.57;5.20;;;;;;;;;;5025069;28;20021;-54
2023/03/08 13:33:22;;;;;;;12.52;5.00;;;;;;;;;;5020732;28;20061;-54
2023/03/08 13:36:01;;;;;;;11.85;5.72;;;;;;;;;;5019183;28;20037;-55
2023/03/08 13:38:32;;;;;;;13.07;5.43;;;;;;;;;;5009830;28;20040;-54
2023/03/08 13:40:58;;;;;;;8.85;4.15;;;;;;;;;;5022802;28;20038;-54
2023/03/08 13:43:26;;;;;;;11.38;5.80;;;;;;;;;;5025143;28;20033;-55
2023/03/08 13:45:55;;;;;;;12.30;5.50;;;;;;;;;;5024562;28;20084;-55
2023/03/08 13:48:23;;;;;;;9.18;4.97;;;;;;;;;;5025034;28;20041;-54
2023/03/08 13:50:50;;;;;;;10.77;5.32;;;;;;;;;;5023768;28;20556;-56
2023/03/08 13:53:20;;;;;;;10.57;4.10;;;;;;;;;;5024576;28;20033;-54
2023/03/08 13:55:49;;;;;;;11.85;5.50;;;;;;;;;;5024418;28;20083;-55
2023/03/08 13:58:25;;;;;;;12.50;6.10;;;;;;;;;;5021937;28;20025;-54
2023/03/08 14:01:09;;;;;;;11.70;4.95;;;;;;;;;;5020192;28;20037;-55
2023/03/08 14:03:34;;;;;;;11.50;5.25;;;;;;;;;;5022730;28;20050;-52
2023/03/08 14:06:00;;;;;;;9.02;4.50;;;;;;;;;;5024145;28;20033;-55
2023/03/08 14:08:26;;;;;;;15.45;5.10;;;;;;;;;;5027500;28;20045;-54
2023/03/08 14:11:13;;;;;;;11.07;5.53;;;;;;;;;;5028084;28;20041;-55
2023/03/08 14:13:41;;;;;;;9.10;5.13;;;;;;;;;;5028686;28;20037;-53
2023/03/08 14:16:08;;;;;;;14.68;5.97;;;;;;;;;;5026815;28;20025;-53
2023/03/08 14:18:36;;;;;;;11.95;6.18;;;;;;;;;;5030167;28;20108;-55
2023/03/08 14:21:15;;;;;;;11.93;6.13;;;;;;;;;;5047167;28;20087;-56
2023/03/08 14:23:58;;;;;;;11.50;5.75;;;;;;;;;;5037053;28;20090;-56
2023/03/08 14:26:24;;;;;;;15.00;7.10;;;;;;;;;;5026918;28;20072;-54
2023/03/08 14:29:20;;;;;;;15.95;7.07;;;;;;;;;;5028016;28;20115;-55
2023/03/08 14:31:58;;;;;;;13.43;6.25;;;;;;;;;;5020134;28;20041;-55
2023/03/08 14:34:35;;;;;;;13.73;7.45;;;;;;;;;;5024519;28;20061;-55
2023/03/08 14:37:06;;;;;;;13.80;6.03;;;;;;;;;;5026867;28;20065;-55
2023/03/08 14:39:34;;;;;;;16.50;7.47;;;;;;;;;;5027657;28;20045;-54
2023/03/08 14:42:28;;;;;;;20.40;8.10;;;;;;;;;;5043910;28;20434;-55
2023/03/08 14:44:58;;;;;;;21.73;8.93;;;;;;;;;;5047842;28;20595;-55
2023/03/08 14:47:26;;;;;;;17.98;7.68;;;;;;;;;;5048067;28;20271;-56